sensor_id;sensor_type;location;lat;lon;timestamp;pressure;altitude;pressure_sealevel;temperature;humidity
34925;BME280;21130;51.728;8.748;2023-10-08T00:02:15;100882.69;;;17.37;100.00
34925;BME280;21130;51.728;8.748;2023-10-08T00:04:48;100886.91;;;17.39;100.00
34925;BME280;21130;51.728;8.748;2023-10-08T00:07:17;100891.94;;;17.37;100.00
34925;BME280;21130;51.728;8.748;2023-10-08T00:09:47;100890.28;;;17.36;100.00
34925;BME280;21130;51.728;8.748;2023-10-08T00:12:14;100897.56;;;17.32;100.00
34925;BME280;21130;51.728;8.748;2023-10-08T00:14:41;100902.06;;;17.33;100.00
34925;BME280;21130;51.728;8.748;2023-10-08T00:17:11;100899.53;;;17.32;100.00
34925;BME280;21130;51.728;8.748;2023-10-08T00:19:37;100897.00;;;17.35;100.00
34925;BME280;21130;51.728;8.748;2023-10-08T00:22:06;100897.00;;;17.35;100.00
34925;BME280;21130;51.728;8.748;2023-10-08T00:24:33;100898.97;;;17.35;100.00
34925;BME280;21130;51.728;8.748;2023-10-08T00:27:00;100903.16;;;17.27;100.00
34925;BME280;21130;51.728;8.748;2023-10-08T00:29:29;100913.28;;;17.28;100.00
34925;BME280;21130;51.728;8.748;2023-10-08T00:31:56;100917.19;;;17.27;100.00
34925;BME280;21130;51.728;8.748;2023-10-08T00:34:23;100916.09;;;17.28;100.00
34925;BME280;21130;51.728;8.748;2023-10-08T00:36:50;100916.94;;;17.28;100.00
34925;BME280;21130;51.728;8.748;2023-10-08T00:39:18;100916.09;;;17.28;100.00
34925;BME280;21130;51.728;8.748;2023-10-08T00:41:49;100908.78;;;17.27;100.00
34925;BME280;21130;51.728;8.748;2023-10-08T00:44:19;100912.16;;;17.24;100.00
34925;BME280;21130;51.728;8.748;2023-10-08T00:46:48;100920.56;;;17.24;100.00
34925;BME280;21130;51.728;8.748;2023-10-08T00:49:16;100920.00;;;17.17;100.00
34925;BME280;21130;51.728;8.748;2023-10-08T00:51:51;100913.56;;;17.21;100.00
34925;BME280;21130;51.728;8.748;2023-10-08T00:54:31;100917.75;;;17.19;100.00
34925;BME280;21130;51.728;8.748;2023-10-08T00:57:00;100927.28;;;17.18;100.00
34925;BME280;21130;51.728;8.748;2023-10-08T00:59:31;100925.88;;;17.15;100.00
34925;BME280;21130;51.728;8.748;2023-10-08T01:02:07;100934.59;;;17.14;100.00
34925;BME280;21130;51.728;8.748;2023-10-08T01:04:40;100930.66;;;17.10;100.00
34925;BME280;21130;51.728;8.748;2023-10-08T01:07:10;100938.50;;;17.13;100.00
34925;BME280;21130;51.728;8.748;2023-10-08T01:09:39;100940.19;;;17.14;100.00
34925;BME280;21130;51.728;8.748;2023-10-08T01:12:12;100941.59;;;17.06;100.00
34925;BME280;21130;51.728;8.748;2023-10-08T01:14:41;100943.25;;;17.07;100.00
34925;BME280;21130;51.728;8.748;2023-10-08T01:17:08;100949.69;;;17.08;100.00
34925;BME280;21130;51.728;8.748;2023-10-08T01:19:38;100954.19;;;17.03;100.00
34925;BME280;21130;51.728;8.748;2023-10-08T01:22:08;100943.56;;;17.05;100.00
34925;BME280;21130;51.728;8.748;2023-10-08T01:24:42;100957.00;;;16.98;100.00
34925;BME280;21130;51.728;8.748;2023-10-08T01:27:08;100964.25;;;16.94;100.00
34925;BME280;21130;51.728;8.748;2023-10-08T01:29:37;100957.47;;;16.80;100.00
34925;BME280;21130;51.728;8.748;2023-10-08T01:32:10;100965.31;;;16.73;100.00
34925;BME280;21130;51.728;8.748;2023-10-08T01:34:41;100958.81;;;16.62;100.00
34925;BME280;21130;51.728;8.748;2023-10-08T01:37:12;100966.91;;;16.53;100.00
34925;BME280;21130;51.728;8.748;2023-10-08T01:39:39;100970.22;;;16.45;100.00
34925;BME280;21130;51.728;8.748;2023-10-08T01:42:07;100979.13;;;16.37;100.00
34925;BME280;21130;51.728;8.748;2023-10-08T01:44:40;100976.88;;;16.34;100.00
34925;BME280;21130;51.728;8.748;2023-10-08T01:47:07;100964.28;;;16.31;100.00
34925;BME280;21130;51.728;8.748;2023-10-08T01:49:36;100964.25;;;16.26;100.00
34925;BME280;21130;51.728;8.748;2023-10-08T01:52:04;100961.69;;;16.19;100.00
34925;BME280;21130;51.728;8.748;2023-10-08T01:54:34;100967.25;;;16.14;100.00
34925;BME280;21130;51.728;8.748;2023-10-08T01:57:02;100972.81;;;16.09;100.00
34925;BME280;21130;51.728;8.748;2023-10-08T01:59:31;100982.03;;;16.05;100.00
34925;BME280;21130;51.728;8.748;2023-10-08T02:01:58;100993.50;;;16.03;100.00
34925;BME280;21130;51.728;8.748;2023-10-08T02:04:25;100985.94;;;16.04;100.00
34925;BME280;21130;51.728;8.748;2023-10-08T02:06:51;100967.13;;;15.94;100.00
34925;BME280;21130;51.728;8.748;2023-10-08T02:09:18;100971.88;;;15.93;100.00
34925;BME280;21130;51.728;8.748;2023-10-08T02:11:52;100988.94;;;15.92;100.00
34925;BME280;21130;51.728;8.748;2023-10-08T02:14:20;100995.63;;;15.86;100.00
34925;BME280;21130;51.728;8.748;2023-10-08T02:16:49;101003.44;;;15.84;100.00
34925;BME280;21130;51.728;8.748;2023-10-08T02:19:17;101010.66;;;15.80;100.00
34925;BME280;21130;51.728;8.748;2023-10-08T02:21:52;101024.06;;;15.72;100.00
34925;BME280;21130;51.728;8.748;2023-10-08T02:24:20;101017.34;;;15.73;100.00
34925;BME280;21130;51.728;8.748;2023-10-08T02:26:51;101015.03;;;15.65;100.00
34925;BME280;21130;51.728;8.748;2023-10-08T02:29:20;100997.31;;;15.60;100.00
34925;BME280;21130;51.728;8.748;2023-10-08T02:31:47;100979.66;;;15.54;100.00
34925;BME280;21130;51.728;8.748;2023-10-08T02:34:13;100990.84;;;15.54;100.00
34925;BME280;21130;51.728;8.748;2023-10-08T02:36:40;101007.59;;;15.49;100.00
34925;BME280;21130;51.728;8.748;2023-10-08T02:39:07;101002.44;;;15.36;100.00
34925;BME280;21130;51.728;8.748;2023-10-08T02:41:39;100996.91;;;14.91;100.00
34925;BME280;21130;51.728;8.748;2023-10-08T02:44:08;101001.16;;;14.72;100.00
34925;BME280;21130;51.728;8.748;2023-10-08T02:46:38;101006.66;;;14.45;100.00
34925;BME280;21130;51.728;8.748;2023-10-08T02:49:06;101003.59;;;14.24;100.00
34925;BME280;21130;51.728;8.748;2023-10-08T02:51:36;101005.28;;;14.09;100.00
34925;BME280;21130;51.728;8.748;2023-10-08T02:54:03;101006.84;;;13.99;100.00
34925;BME280;21130;51.728;8.748;2023-10-08T02:56:30;101011.75;;;13.92;100.00
34925;BME280;21130;51.728;8.748;2023-10-08T02:58:58;101056.63;;;13.74;100.00
34925;BME280;21130;51.728;8.748;2023-10-08T03:01:27;101042.19;;;13.77;100.00
34925;BME280;21130;51.728;8.748;2023-10-08T03:03:59;101012.41;;;13.66;100.00
34925;BME280;21130;51.728;8.748;2023-10-08T03:06:34;101009.41;;;13.67;100.00
34925;BME280;21130;51.728;8.748;2023-10-08T03:09:03;101040.97;;;13.56;100.00
34925;BME280;21130;51.728;8.748;2023-10-08T03:11:30;101060.56;;;13.44;100.00
34925;BME280;21130;51.728;8.748;2023-10-08T03:13:57;101069.53;;;13.46;100.00
34925;BME280;21130;51.728;8.748;2023-10-08T03:16:23;101049.66;;;13.43;100.00
34925;BME280;21130;51.728;8.748;2023-10-08T03:18:55;101030.31;;;13.36;100.00
34925;BME280;21130;51.728;8.748;2023-10-08T03:21:22;100994.81;;;13.31;100.00
34925;BME280;21130;51.728;8.748;2023-10-08T03:24:09;101015.09;;;13.27;100.00
34925;BME280;21130;51.728;8.748;2023-10-08T03:26:54;101053.97;;;13.22;100.00
34925;BME280;21130;51.728;8.748;2023-10-08T03:29:31;101099.22;;;13.12;100.00
34925;BME280;21130;51.728;8.748;2023-10-08T03:31:58;101089.53;;;13.14;100.00
34925;BME280;21130;51.728;8.748;2023-10-08T03:34:32;101073.06;;;13.01;100.00
34925;BME280;21130;51.728;8.748;2023-10-08T03:37:00;101075.16;;;12.94;100.00
34925;BME280;21130;51.728;8.748;2023-10-08T03:39:31;101074.69;;;12.85;100.00
34925;BME280;21130;51.728;8.748;2023-10-08T03:42:19;101057.28;;;12.78;100.00
34925;BME280;21130;51.728;8.748;2023-10-08T03:44:47;101050.25;;;12.75;100.00
34925;BME280;21130;51.728;8.748;2023-10-08T03:47:16;101077.88;;;12.77;100.00
34925;BME280;21130;51.728;8.748;2023-10-08T03:49:46;101106.25;;;12.62;100.00
34925;BME280;21130;51.728;8.748;2023-10-08T03:52:15;101098.84;;;12.56;100.00
34925;BME280;21130;51.728;8.748;2023-10-08T03:54:42;101110.47;;;12.53;100.00
34925;BME280;21130;51.728;8.748;2023-10-08T03:57:14;101116.66;;;12.43;100.00
34925;BME280;21130;51.728;8.748;2023-10-08T03:59:44;101105.03;;;12.35;100.00
34925;BME280;21130;51.728;8.748;2023-10-08T04:02:13;101114.97;;;12.42;100.00
34925;BME280;21130;51.728;8.748;2023-10-08T04:04:40;101111.22;;;12.37;100.00
34925;BME280;21130;51.728;8.748;2023-10-08T04:07:19;101102.75;;;12.31;100.00
34925;BME280;21130;51.728;8.748;2023-10-08T04:10:00;101117.00;;;12.35;100.00
34925;BME280;21130;51.728;8.748;2023-10-08T04:12:52;101132.13;;;12.27;100.00
34925;BME280;21130;51.728;8.748;2023-10-08T04:15:19;101122.56;;;12.23;100.00
34925;BME280;21130;51.728;8.748;2023-10-08T04:17:46;101126.69;;;12.21;100.00
34925;BME280;21130;51.728;8.748;2023-10-08T04:20:17;101133.84;;;12.17;100.00
34925;BME280;21130;51.728;8.748;2023-10-08T04:23:00;101140.72;;;12.14;100.00
34925;BME280;21130;51.728;8.748;2023-10-08T04:25:27;101131.16;;;12.10;100.00
34925;BME280;21130;51.728;8.748;2023-10-08T04:27:54;101127.16;;;12.06;100.00
34925;BME280;21130;51.728;8.748;2023-10-08T04:30:24;101149.41;;;12.06;100.00
34925;BME280;21130;51.728;8.748;2023-10-08T04:32:58;101150.25;;;11.95;100.00
34925;BME280;21130;51.728;8.748;2023-10-08T04:35:25;101138.28;;;11.94;100.00
34925;BME280;21130;51.728;8.748;2023-10-08T04:37:52;101122.78;;;11.86;100.00
34925;BME280;21130;51.728;8.748;2023-10-08T04:40:34;101128.09;;;11.88;100.00
34925;BME280;21130;51.728;8.748;2023-10-08T04:43:07;101129.63;;;11.84;100.00
34925;BME280;21130;51.728;8.748;2023-10-08T04:45:36;101139.22;;;11.88;100.00
34925;BME280;21130;51.728;8.748;2023-10-08T04:48:03;101124.53;;;11.81;100.00
34925;BME280;21130;51.728;8.748;2023-10-08T04:50:34;101126.81;;;11.72;100.00
34925;BME280;21130;51.728;8.748;2023-10-08T04:53:02;101136.84;;;11.73;100.00
34925;BME280;21130;51.728;8.748;2023-10-08T04:55:34;101142.59;;;11.60;100.00
34925;BME280;21130;51.728;8.748;2023-10-08T04:58:06;101166.38;;;11.56;100.00
34925;BME280;21130;51.728;8.748;2023-10-08T05:00:44;101143.56;;;11.54;100.00
34925;BME280;21130;51.728;8.748;2023-10-08T05:03:19;101146.41;;;11.47;100.00
34925;BME280;21130;51.728;8.748;2023-10-08T05:05:48;101159.22;;;11.48;100.00
34925;BME280;21130;51.728;8.748;2023-10-08T05:08:31;101165.75;;;11.42;100.00
34925;BME280;21130;51.728;8.748;2023-10-08T05:11:14;101179.84;;;11.40;100.00
34925;BME280;21130;51.728;8.748;2023-10-08T05:14:11;101170.44;;;11.41;100.00
34925;BME280;21130;51.728;8.748;2023-10-08T05:16:42;101185.41;;;11.40;100.00
34925;BME280;21130;51.728;8.748;2023-10-08T05:19:25;101205.19;;;11.32;100.00
34925;BME280;21130;51.728;8.748;2023-10-08T05:22:14;101194.22;;;11.37;100.00
34925;BME280;21130;51.728;8.748;2023-10-08T05:25:09;101219.16;;;11.25;100.00
34925;BME280;21130;51.728;8.748;2023-10-08T05:27:52;101226.19;;;11.28;100.00
34925;BME280;21130;51.728;8.748;2023-10-08T05:30:34;101246.09;;;11.25;100.00
34925;BME280;21130;51.728;8.748;2023-10-08T05:33:18;101266.03;;;11.22;100.00
34925;BME280;21130;51.728;8.748;2023-10-08T05:35:51;101263.47;;;11.20;100.00
34925;BME280;21130;51.728;8.748;2023-10-08T05:38:28;101262.25;;;11.16;100.00
34925;BME280;21130;51.728;8.748;2023-10-08T05:41:14;101268.69;;;11.10;100.00
34925;BME280;21130;51.728;8.748;2023-10-08T05:43:57;101270.00;;;11.08;100.00
34925;BME280;21130;51.728;8.748;2023-10-08T05:46:49;101280.34;;;11.00;100.00
34925;BME280;21130;51.728;8.748;2023-10-08T05:49:54;101285.28;;;10.98;100.00
34925;BME280;21130;51.728;8.748;2023-10-08T05:52:39;101291.19;;;10.84;100.00
34925;BME280;21130;51.728;8.748;2023-10-08T05:55:28;101295.53;;;10.73;100.00
34925;BME280;21130;51.728;8.748;2023-10-08T05:58:02;101277.72;;;10.62;100.00
34925;BME280;21130;51.728;8.748;2023-10-08T06:00:41;101295.94;;;10.51;100.00
34925;BME280;21130;51.728;8.748;2023-10-08T06:03:30;101284.25;;;10.43;100.00
34925;BME280;21130;51.728;8.748;2023-10-08T06:06:04;101280.25;;;10.38;100.00
34925;BME280;21130;51.728;8.748;2023-10-08T06:08:51;101298.81;;;10.38;100.00
34925;BME280;21130;51.728;8.748;2023-10-08T06:11:37;101291.38;;;10.32;100.00
34925;BME280;21130;51.728;8.748;2023-10-08T06:14:10;101291.38;;;10.32;100.00
34925;BME280;21130;51.728;8.748;2023-10-08T06:16:41;101310.41;;;10.28;100.00
34925;BME280;21130;51.728;8.748;2023-10-08T06:19:10;101312.09;;;10.23;100.00
34925;BME280;21130;51.728;8.748;2023-10-08T06:21:35;101305.94;;;10.21;100.00
34925;BME280;21130;51.728;8.748;2023-10-08T06:24:04;101324.31;;;10.15;100.00
34925;BME280;21130;51.728;8.748;2023-10-08T06:26:39;101320.31;;;10.11;100.00
34925;BME280;21130;51.728;8.748;2023-10-08T06:29:10;101328.38;;;10.12;100.00
34925;BME280;21130;51.728;8.748;2023-10-08T06:31:54;101349.34;;;10.08;100.00
34925;BME280;21130;51.728;8.748;2023-10-08T06:34:21;101355.72;;;10.09;100.00
34925;BME280;21130;51.728;8.748;2023-10-08T06:36:48;101370.47;;;10.03;100.00
34925;BME280;21130;51.728;8.748;2023-10-08T06:39:19;101373.28;;;9.96;100.00
34925;BME280;21130;51.728;8.748;2023-10-08T06:41:51;101381.81;;;9.94;100.00
34925;BME280;21130;51.728;8.748;2023-10-08T06:44:18;101388.66;;;9.85;100.00
34925;BME280;21130;51.728;8.748;2023-10-08T06:46:45;101394.88;;;9.81;100.00
34925;BME280;21130;51.728;8.748;2023-10-08T06:49:14;101398.50;;;9.81;100.00
34925;BME280;21130;51.728;8.748;2023-10-08T06:51:43;101405.13;;;9.73;100.00
34925;BME280;21130;51.728;8.748;2023-10-08T06:54:10;101399.59;;;9.73;100.00
34925;BME280;21130;51.728;8.748;2023-10-08T06:56:39;101399.59;;;9.60;100.00
34925;BME280;21130;51.728;8.748;2023-10-08T06:59:11;101392.59;;;9.44;100.00
34925;BME280;21130;51.728;8.748;2023-10-08T07:01:37;101410.94;;;9.39;100.00
34925;BME280;21130;51.728;8.748;2023-10-08T07:04:11;101412.00;;;9.44;100.00
34925;BME280;21130;51.728;8.748;2023-10-08T07:06:39;101408.16;;;9.45;100.00
34925;BME280;21130;51.728;8.748;2023-10-08T07:09:07;101408.19;;;9.39;100.00
34925;BME280;21130;51.728;8.748;2023-10-08T07:11:47;101407.75;;;9.35;100.00
34925;BME280;21130;51.728;8.748;2023-10-08T07:14:15;101412.66;;;9.26;100.00
34925;BME280;21130;51.728;8.748;2023-10-08T07:16:41;101414.16;;;9.22;100.00
34925;BME280;21130;51.728;8.748;2023-10-08T07:19:08;101412.47;;;9.21;100.00
34925;BME280;21130;51.728;8.748;2023-10-08T07:21:45;101423.13;;;9.11;100.00
34925;BME280;21130;51.728;8.748;2023-10-08T07:24:12;101426.09;;;9.16;100.00
34925;BME280;21130;51.728;8.748;2023-10-08T07:26:43;101433.56;;;9.16;100.00
34925;BME280;21130;51.728;8.748;2023-10-08T07:29:13;101443.16;;;9.13;100.00
34925;BME280;21130;51.728;8.748;2023-10-08T07:31:42;101442.06;;;9.14;100.00
34925;BME280;21130;51.728;8.748;2023-10-08T07:34:14;101426.28;;;9.15;100.00
34925;BME280;21130;51.728;8.748;2023-10-08T07:36:46;101414.38;;;9.14;100.00
34925;BME280;21130;51.728;8.748;2023-10-08T07:39:14;101413.09;;;9.23;100.00
34925;BME280;21130;51.728;8.748;2023-10-08T07:41:51;101415.22;;;9.28;100.00
34925;BME280;21130;51.728;8.748;2023-10-08T07:44:19;101406.28;;;9.26;100.00
34925;BME280;21130;51.728;8.748;2023-10-08T07:46:48;101404.16;;;9.21;100.00
34925;BME280;21130;51.728;8.748;2023-10-08T07:49:14;101399.25;;;9.23;100.00
34925;BME280;21130;51.728;8.748;2023-10-08T07:51:41;101411.19;;;9.30;100.00
34925;BME280;21130;51.728;8.748;2023-10-08T07:54:18;101416.94;;;9.36;100.00
34925;BME280;21130;51.728;8.748;2023-10-08T07:56:45;101408.38;;;9.37;100.00
34925;BME280;21130;51.728;8.748;2023-10-08T07:59:13;101408.16;;;9.45;100.00
34925;BME280;21130;51.728;8.748;2023-10-08T08:01:40;101414.97;;;9.49;100.00
34925;BME280;21130;51.728;8.748;2023-10-08T08:04:07;101411.38;;;9.56;100.00
34925;BME280;21130;51.728;8.748;2023-10-08T08:06:35;101403.66;;;9.64;100.00
34925;BME280;21130;51.728;8.748;2023-10-08T08:09:02;101415.81;;;9.63;100.00
34925;BME280;21130;51.728;8.748;2023-10-08T08:11:34;101421.97;;;9.65;100.00
34925;BME280;21130;51.728;8.748;2023-10-08T08:14:02;101430.72;;;9.62;100.00
34925;BME280;21130;51.728;8.748;2023-10-08T08:16:33;101435.84;;;9.65;100.00
34925;BME280;21130;51.728;8.748;2023-10-08T08:19:02;101440.28;;;9.73;100.00
34925;BME280;21130;51.728;8.748;2023-10-08T08:21:28;101444.53;;;9.89;100.00
34925;BME280;21130;51.728;8.748;2023-10-08T08:23:56;101453.06;;;9.94;100.00
34925;BME280;21130;51.728;8.748;2023-10-08T08:26:30;101453.00;;;10.07;100.00
34925;BME280;21130;51.728;8.748;2023-10-08T08:29:06;101469.84;;;10.12;100.00
34925;BME280;21130;51.728;8.748;2023-10-08T08:31:35;101470.88;;;10.25;100.00
34925;BME280;21130;51.728;8.748;2023-10-08T08:34:02;101461.72;;;10.17;100.00
34925;BME280;21130;51.728;8.748;2023-10-08T08:36:35;101439.34;;;10.12;100.00
34925;BME280;21130;51.728;8.748;2023-10-08T08:39:04;101434.25;;;10.09;100.00
34925;BME280;21130;51.728;8.748;2023-10-08T08:41:36;101440.16;;;10.20;100.00
34925;BME280;21130;51.728;8.748;2023-10-08T08:44:04;101435.03;;;10.23;100.00
34925;BME280;21130;51.728;8.748;2023-10-08T08:46:34;101436.31;;;10.21;100.00
34925;BME280;21130;51.728;8.748;2023-10-08T08:49:03;101442.94;;;10.26;100.00
34925;BME280;21130;51.728;8.748;2023-10-08T08:51:31;101440.56;;;10.36;100.00
34925;BME280;21130;51.728;8.748;2023-10-08T08:53:58;101443.91;;;10.45;100.00
34925;BME280;21130;51.728;8.748;2023-10-08T08:56:30;101463.78;;;10.49;100.00
34925;BME280;21130;51.728;8.748;2023-10-08T08:58:58;101469.97;;;10.51;100.00
34925;BME280;21130;51.728;8.748;2023-10-08T09:01:26;101473.97;;;10.55;100.00
34925;BME280;21130;51.728;8.748;2023-10-08T09:03:59;101493.75;;;10.72;100.00
34925;BME280;21130;51.728;8.748;2023-10-08T09:06:27;101511.25;;;10.79;100.00
34925;BME280;21130;51.728;8.748;2023-10-08T09:08:54;101520.81;;;10.83;100.00
34925;BME280;21130;51.728;8.748;2023-10-08T09:11:38;101507.81;;;10.77;100.00
34925;BME280;21130;51.728;8.748;2023-10-08T09:14:07;101511.63;;;10.82;100.00
34925;BME280;21130;51.728;8.748;2023-10-08T09:16:35;101509.09;;;10.81;100.00
34925;BME280;21130;51.728;8.748;2023-10-08T09:19:03;101487.91;;;10.87;100.00
34925;BME280;21130;51.728;8.748;2023-10-08T09:21:37;101462.25;;;10.91;100.00
34925;BME280;21130;51.728;8.748;2023-10-08T09:24:04;101477.66;;;11.19;100.00
34925;BME280;21130;51.728;8.748;2023-10-08T09:26:37;101496.44;;;11.23;100.00
34925;BME280;21130;51.728;8.748;2023-10-08T09:29:05;101518.03;;;11.21;100.00
34925;BME280;21130;51.728;8.748;2023-10-08T09:31:33;101520.53;;;11.30;100.00
34925;BME280;21130;51.728;8.748;2023-10-08T09:34:01;101517.25;;;11.39;100.00
34925;BME280;21130;51.728;8.748;2023-10-08T09:36:31;101499.66;;;11.45;100.00
34925;BME280;21130;51.728;8.748;2023-10-08T09:39:00;101492.28;;;11.58;100.00
34925;BME280;21130;51.728;8.748;2023-10-08T09:41:28;101481.66;;;11.73;100.00
34925;BME280;21130;51.728;8.748;2023-10-08T09:43:55;101478.81;;;11.80;100.00
34925;BME280;21130;51.728;8.748;2023-10-08T09:46:27;101434.91;;;12.07;100.00
34925;BME280;21130;51.728;8.748;2023-10-08T09:48:59;101426.53;;;12.25;100.00
34925;BME280;21130;51.728;8.748;2023-10-08T09:51:28;101449.16;;;13.08;100.00
34925;BME280;21130;51.728;8.748;2023-10-08T09:54:02;101454.50;;;13.09;100.00
34925;BME280;21130;51.728;8.748;2023-10-08T09:56:35;101447.59;;;13.24;100.00
34925;BME280;21130;51.728;8.748;2023-10-08T09:59:04;101461.28;;;13.02;100.00
34925;BME280;21130;51.728;8.748;2023-10-08T10:01:33;101458.00;;;13.05;100.00
34925;BME280;21130;51.728;8.748;2023-10-08T10:04:00;101471.50;;;13.19;100.00
34925;BME280;21130;51.728;8.748;2023-10-08T10:06:26;101479.53;;;13.28;100.00
34925;BME280;21130;51.728;8.748;2023-10-08T10:08:57;101490.88;;;13.26;100.00
34925;BME280;21130;51.728;8.748;2023-10-08T10:11:26;101501.91;;;12.91;100.00
34925;BME280;21130;51.728;8.748;2023-10-08T10:13:58;101506.56;;;12.97;100.00
34925;BME280;21130;51.728;8.748;2023-10-08T10:16:26;101510.06;;;12.92;100.00
34925;BME280;21130;51.728;8.748;2023-10-08T10:18:55;101521.75;;;12.83;100.00
34925;BME280;21130;51.728;8.748;2023-10-08T10:21:29;101525.78;;;12.68;100.00
34925;BME280;21130;51.728;8.748;2023-10-08T10:23:57;101541.19;;;12.71;100.00
34925;BME280;21130;51.728;8.748;2023-10-08T10:26:26;101537.69;;;12.75;100.00
34925;BME280;21130;51.728;8.748;2023-10-08T10:29:18;101531.03;;;12.95;100.00
34925;BME280;21130;51.728;8.748;2023-10-08T10:31:45;101527.13;;;12.96;100.00
34925;BME280;21130;51.728;8.748;2023-10-08T10:34:14;101540.06;;;13.21;100.00
34925;BME280;21130;51.728;8.748;2023-10-08T10:36:43;101527.13;;;13.26;100.00
34925;BME280;21130;51.728;8.748;2023-10-08T10:39:15;101538.25;;;13.56;100.00
34925;BME280;21130;51.728;8.748;2023-10-08T10:41:44;101532.84;;;13.73;100.00
34925;BME280;21130;51.728;8.748;2023-10-08T10:44:10;101532.13;;;13.78;100.00
34925;BME280;21130;51.728;8.748;2023-10-08T10:46:40;101533.69;;;13.74;100.00
34925;BME280;21130;51.728;8.748;2023-10-08T10:49:07;101520.59;;;13.86;100.00
34925;BME280;21130;51.728;8.748;2023-10-08T10:51:43;101510.06;;;14.00;100.00
34925;BME280;21130;51.728;8.748;2023-10-08T10:54:12;101492.91;;;13.96;100.00
34925;BME280;21130;51.728;8.748;2023-10-08T10:56:46;101477.78;;;13.92;100.00
34925;BME280;21130;51.728;8.748;2023-10-08T10:59:13;101490.84;;;14.03;100.00
34925;BME280;21130;51.728;8.748;2023-10-08T11:01:45;101487.69;;;14.12;100.00
34925;BME280;21130;51.728;8.748;2023-10-08T11:04:12;101488.78;;;14.11;100.00
34925;BME280;21130;51.728;8.748;2023-10-08T11:06:41;101479.91;;;14.14;100.00
34925;BME280;21130;51.728;8.748;2023-10-08T11:09:10;101494.31;;;14.34;100.00
34925;BME280;21130;51.728;8.748;2023-10-08T11:11:58;101495.94;;;14.82;100.00
34925;BME280;21130;51.728;8.748;2023-10-08T11:14:27;101474.66;;;15.27;100.00
34925;BME280;21130;51.728;8.748;2023-10-08T11:16:55;101479.25;;;15.67;100.00
34925;BME280;21130;51.728;8.748;2023-10-08T11:19:21;101477.75;;;15.76;100.00
34925;BME280;21130;51.728;8.748;2023-10-08T11:21:49;101471.19;;;16.04;100.00
34925;BME280;21130;51.728;8.748;2023-10-08T11:24:27;101462.03;;;15.92;100.00
34925;BME280;21130;51.728;8.748;2023-10-08T11:26:54;101470.47;;;15.75;100.00
34925;BME280;21130;51.728;8.748;2023-10-08T11:29:33;101477.53;;;16.16;100.00
34925;BME280;21130;51.728;8.748;2023-10-08T11:32:04;101454.66;;;16.47;100.00
34925;BME280;21130;51.728;8.748;2023-10-08T11:34:32;101458.41;;;15.74;100.00
34925;BME280;21130;51.728;8.748;2023-10-08T11:37:04;101453.47;;;15.14;100.00
34925;BME280;21130;51.728;8.748;2023-10-08T11:39:45;101473.91;;;14.86;100.00
34925;BME280;21130;51.728;8.748;2023-10-08T11:42:12;101467.56;;;14.62;100.00
34925;BME280;21130;51.728;8.748;2023-10-08T11:45:05;101467.53;;;14.74;100.00
34925;BME280;21130;51.728;8.748;2023-10-08T11:47:44;101471.72;;;14.88;100.00
34925;BME280;21130;51.728;8.748;2023-10-08T11:50:11;101485.38;;;15.01;100.00
34925;BME280;21130;51.728;8.748;2023-10-08T11:52:42;101485.16;;;15.03;100.00
34925;BME280;21130;51.728;8.748;2023-10-08T11:55:09;101489.66;;;15.21;100.00
34925;BME280;21130;51.728;8.748;2023-10-08T11:57:39;101474.22;;;15.01;100.00
34925;BME280;21130;51.728;8.748;2023-10-08T12:00:13;101474.66;;;15.10;100.00
34925;BME280;21130;51.728;8.748;2023-10-08T12:02:45;101464.63;;;14.97;100.00
34925;BME280;21130;51.728;8.748;2023-10-08T12:05:11;101469.78;;;14.88;100.00
34925;BME280;21130;51.728;8.748;2023-10-08T12:07:45;101458.09;;;14.91;100.00
34925;BME280;21130;51.728;8.748;2023-10-08T12:10:11;101455.47;;;15.02;100.00
34925;BME280;21130;51.728;8.748;2023-10-08T12:12:38;101450.41;;;14.99;100.00
34925;BME280;21130;51.728;8.748;2023-10-08T12:15:06;101454.69;;;14.89;100.00
34925;BME280;21130;51.728;8.748;2023-10-08T12:17:36;101450.91;;;14.96;100.00
34925;BME280;21130;51.728;8.748;2023-10-08T12:20:06;101450.91;;;14.96;100.00
34925;BME280;21130;51.728;8.748;2023-10-08T12:22:48;101457.19;;;15.03;100.00
34925;BME280;21130;51.728;8.748;2023-10-08T12:25:15;101456.31;;;14.85;100.00
34925;BME280;21130;51.728;8.748;2023-10-08T12:27:41;101448.06;;;14.79;100.00
34925;BME280;21130;51.728;8.748;2023-10-08T12:30:09;101451.78;;;14.84;100.00
34925;BME280;21130;51.728;8.748;2023-10-08T12:32:37;101447.84;;;14.80;100.00
34925;BME280;21130;51.728;8.748;2023-10-08T12:35:07;101439.31;;;15.04;100.00
34925;BME280;21130;51.728;8.748;2023-10-08T12:37:38;101429.41;;;15.13;100.00
34925;BME280;21130;51.728;8.748;2023-10-08T12:40:06;101417.81;;;15.21;100.00
34925;BME280;21130;51.728;8.748;2023-10-08T12:42:37;101417.13;;;15.31;100.00
34925;BME280;21130;51.728;8.748;2023-10-08T12:45:05;101419.16;;;15.36;100.00
34925;BME280;21130;51.728;8.748;2023-10-08T12:47:38;101415.84;;;15.05;100.00
34925;BME280;21130;51.728;8.748;2023-10-08T12:50:07;101413.38;;;14.91;100.00
34925;BME280;21130;51.728;8.748;2023-10-08T12:52:35;101398.16;;;15.16;100.00
34925;BME280;21130;51.728;8.748;2023-10-08T12:55:01;101389.41;;;14.96;100.00
34925;BME280;21130;51.728;8.748;2023-10-08T12:57:30;101382.88;;;15.07;100.00
34925;BME280;21130;51.728;8.748;2023-10-08T13:00:00;101389.81;;;15.04;100.00
34925;BME280;21130;51.728;8.748;2023-10-08T13:02:28;101383.91;;;15.01;100.00